Time;durP1;ratioP1;P1;durP2;ratioP2;P2;SDS_P1;SDS_P2;PMS_P1;PMS_P2;Temp;Humidity;BMP_temperature;BMP_pressure;BME280_temperature;BME280_humidity;BME280_pressure;Samples;Min_cycle;Max_cycle;Signal;HPM_P1;HPM_P2
2022/06/23 00:00:30;;;;;;;23.65;14.07;;;;;;;;;;10121275;28;20119;-63
2022/06/23 00:05:26;;;;;;;31.58;14.60;;;;;;;;;;10136800;28;20569;-63
2022/06/23 00:10:24;;;;;;;24.35;14.82;;;;;;;;;;10130996;28;20091;-63
2022/06/23 00:15:23;;;;;;;34.80;15.77;;;;;;;;;;10147160;28;20489;-63
2022/06/23 00:20:21;;;;;;;;;;;;;;;;;;10148274;28;20077;-63
2022/06/23 00:25:57;;;;;;;32.78;11.73;;;;;;;;;;10147505;28;19920;-63
2022/06/23 00:30:54;;;;;;;22.10;11.20;;;;;;;;;;10147286;28;20045;-63
2022/06/23 00:35:49;;;;;;;23.15;11.45;;;;;;;;;;10147762;28;20488;-73
2022/06/23 00:40:44;;;;;;;27.30;12.05;;;;;;;;;;10147560;28;20453;-74
2022/06/23 00:45:59;;;;;;;18.38;10.35;;;;;;;;;;10147103;28;20048;-73
2022/06/23 00:50:57;;;;;;;22.58;11.75;;;;;;;;;;10141768;28;20057;-73
2022/06/23 00:56:06;;;;;;;23.80;10.82;;;;;;;;;;10147203;28;20557;-73
2022/06/23 01:01:09;;;;;;;21.67;10.55;;;;;;;;;;10146671;28;20090;-73
2022/06/23 01:06:39;;;;;;;18.98;9.95;;;;;;;;;;10146069;28;20093;-73
2022/06/23 01:11:43;;;;;;;29.90;11.10;;;;;;;;;;10146345;28;20053;-73
2022/06/23 01:16:50;;;;;;;21.48;11.15;;;;;;;;;;10146692;28;20052;-73
2022/06/23 01:21:47;;;;;;;21.20;11.15;;;;;;;;;;10135091;28;20051;-73
2022/06/23 01:26:50;;;;;;;22.92;12.43;;;;;;;;;;10161462;28;20048;-73
2022/06/23 01:31:47;;;;;;;23.17;11.07;;;;;;;;;;10145670;28;20072;-73
2022/06/23 01:36:49;;;;;;;22.65;10.25;;;;;;;;;;10146085;28;20493;-73
2022/06/23 01:41:56;;;;;;;21.00;9.95;;;;;;;;;;10145949;28;20084;-73
2022/06/23 01:46:52;;;;;;;22.63;10.68;;;;;;;;;;10145545;28;20056;-73
2022/06/23 01:51:48;;;;;;;25.95;11.48;;;;;;;;;;10131191;28;20064;-72
2022/06/23 01:57:05;;;;;;;29.13;10.10;;;;;;;;;;10145562;28;20048;-72
2022/06/23 02:02:10;;;;;;;27.25;12.07;;;;;;;;;;10146089;28;20053;-72
2022/06/23 02:07:34;;;;;;;28.98;8.90;;;;;;;;;;10145591;28;20059;-72
2022/06/23 02:12:50;;;;;;;34.28;10.35;;;;;;;;;;10062320;28;20041;-72
2022/06/23 02:18:10;;;;;;;31.15;9.68;;;;;;;;;;10127908;28;20056;-72
2022/06/23 02:23:36;;;;;;;36.88;10.13;;;;;;;;;;10152332;28;20052;-72
2022/06/23 02:28:32;;;;;;;29.92;8.63;;;;;;;;;;10149345;28;20095;-72
2022/06/23 02:34:14;;;;;;;38.45;9.57;;;;;;;;;;10152012;28;20048;-72
2022/06/23 02:39:35;;;;;;;36.10;9.50;;;;;;;;;;10113691;28;20056;-72
2022/06/23 02:44:28;;;;;;;32.22;8.52;;;;;;;;;;10151707;28;20040;-72
2022/06/23 02:50:00;;;;;;;39.05;10.02;;;;;;;;;;10151269;28;20068;-72
2022/06/23 02:55:11;;;;;;;35.72;8.65;;;;;;;;;;10150915;28;20559;-72
2022/06/23 03:00:38;;;;;;;32.00;7.40;;;;;;;;;;10151312;28;20063;-72
2022/06/23 03:05:59;;;;;;;35.58;8.68;;;;;;;;;;10151975;28;20559;-72
2022/06/23 03:11:16;;;;;;;27.20;8.40;;;;;;;;;;10166269;28;20044;-72
2022/06/23 03:16:43;;;;;;;43.15;10.23;;;;;;;;;;10141757;28;20084;-72
2022/06/23 03:21:42;;;;;;;46.65;9.52;;;;;;;;;;10148382;28;20448;-72
2022/06/23 03:26:48;;;;;;;35.40;9.00;;;;;;;;;;10149757;28;20439;-72
2022/06/23 03:31:46;;;;;;;38.33;9.82;;;;;;;;;;10148862;28;20123;-72
2022/06/23 03:36:47;;;;;;;30.00;8.45;;;;;;;;;;10149497;28;20075;-72
2022/06/23 03:42:11;;;;;;;36.40;8.80;;;;;;;;;;10149175;28;20048;-72
2022/06/23 03:47:16;;;;;;;37.75;8.38;;;;;;;;;;10147514;28;20083;-72
2022/06/23 03:52:42;;;;;;;40.38;8.63;;;;;;;;;;10148536;28;20075;-72
2022/06/23 03:57:42;;;;;;;40.63;7.43;;;;;;;;;;10164242;28;20082;-72
2022/06/23 04:02:44;;;;;;;35.58;8.55;;;;;;;;;;10127730;28;20052;-72
2022/06/23 04:07:59;;;;;;;29.65;7.57;;;;;;;;;;10163672;28;20075;-72
2022/06/23 04:12:57;;;;;;;32.88;9.15;;;;;;;;;;10145631;28;20045;-73
2022/06/23 04:18:05;;;;;;;26.58;9.73;;;;;;;;;;10149242;28;20057;-71
2022/06/23 04:23:02;;;;;;;33.00;8.70;;;;;;;;;;10118272;28;20048;-72
2022/06/23 04:27:58;;;;;;;34.00;8.67;;;;;;;;;;10136723;28;20059;-73
2022/06/23 04:32:53;;;;;;;40.63;10.95;;;;;;;;;;10140868;28;20303;-72
2022/06/23 04:38:13;;;;;;;33.75;10.13;;;;;;;;;;10131007;28;20055;-72
2022/06/23 04:43:23;;;;;;;38.85;10.05;;;;;;;;;;10147178;28;20059;-72
2022/06/23 04:48:35;;;;;;;31.50;7.93;;;;;;;;;;10151987;28;20059;-72
2022/06/23 04:53:39;;;;;;;37.95;9.70;;;;;;;;;;10145715;28;20144;-72
2022/06/23 04:58:55;;;;;;;41.17;8.50;;;;;;;;;;10139276;28;20433;-72
2022/06/23 05:03:52;;;;;;;44.80;7.55;;;;;;;;;;10146649;28;20135;-72
2022/06/23 05:08:47;;;;;;;31.23;8.45;;;;;;;;;;10146504;28;20080;-72
2022/06/23 05:13:45;;;;;;;29.52;8.45;;;;;;;;;;10146308;28;20049;-72
2022/06/23 05:18:40;;;;;;;;;;;;;;;;;;10146674;28;20452;-72
2022/06/23 05:23:44;;;;;;;37.28;8.90;;;;;;;;;;10146357;28;19927;-72
2022/06/23 05:28:38;;;;;;;31.15;8.48;;;;;;;;;;10148161;28;20051;-73
2022/06/23 05:33:35;;;;;;;41.85;10.30;;;;;;;;;;10141961;28;20098;-72
2022/06/23 05:38:38;;;;;;;30.40;8.27;;;;;;;;;;10153667;28;20036;-73
2022/06/23 05:43:39;;;;;;;35.22;8.50;;;;;;;;;;10152322;28;20052;-73
2022/06/23 05:48:37;;;;;;;23.35;7.90;;;;;;;;;;10163263;28;20109;-78
2022/06/23 05:53:53;;;;;;;48.80;10.60;;;;;;;;;;10145843;28;20075;-76
2022/06/23 05:58:52;;;;;;;38.08;10.60;;;;;;;;;;10139726;28;20051;-79
2022/06/23 06:03:47;;;;;;;32.85;10.13;;;;;;;;;;10135158;28;20044;-80
2022/06/23 06:13:58;;;;;;;25.30;8.93;;;;;;;;;;10178692;28;20044;-81
2022/06/23 06:18:52;;;;;;;19.15;9.30;;;;;;;;;;10155684;28;20784;-72
2022/06/23 06:23:59;;;;;;;22.25;9.05;;;;;;;;;;10151588;28;20049;-72
2022/06/23 06:28:56;;;;;;;24.13;9.10;;;;;;;;;;10120986;28;20048;-72
2022/06/23 06:33:57;;;;;;;14.43;8.65;;;;;;;;;;10134157;28;20059;-72
2022/06/23 06:38:53;;;;;;;25.52;8.27;;;;;;;;;;10167274;28;20059;-72
2022/06/23 06:43:47;;;;;;;19.92;10.23;;;;;;;;;;10123004;28;20090;-75
2022/06/23 06:48:43;;;;;;;21.42;8.82;;;;;;;;;;10166788;28;20515;-72
2022/06/23 06:53:43;;;;;;;21.60;9.27;;;;;;;;;;10181685;28;20135;-72
2022/06/23 06:59:14;;;;;;;20.02;10.13;;;;;;;;;;10162264;28;20101;-76
2022/06/23 07:04:24;;;;;;;17.90;9.70;;;;;;;;;;10158499;28;20052;-76
2022/06/23 07:09:40;;;;;;;28.65;12.68;;;;;;;;;;10164732;28;20044;-76
2022/06/23 07:14:40;;;;;;;25.10;9.93;;;;;;;;;;10178506;28;20052;-65
2022/06/23 07:19:33;;;;;;;23.75;10.02;;;;;;;;;;10175658;28;20059;-64
2022/06/23 07:24:46;;;;;;;25.25;9.07;;;;;;;;;;10175765;28;20120;-65
2022/06/23 07:29:55;;;;;;;25.10;9.50;;;;;;;;;;10174195;28;20048;-64
2022/06/23 07:34:54;;;;;;;19.85;8.90;;;;;;;;;;10166078;28;20048;-62
2022/06/23 07:39:53;;;;;;;23.77;8.10;;;;;;;;;;10136718;28;20450;-65
2022/06/23 07:44:50;;;;;;;20.95;9.40;;;;;;;;;;10172788;28;20059;-64
2022/06/23 07:49:44;;;;;;;28.02;10.10;;;;;;;;;;10175344;28;20523;-64
2022/06/23 07:54:39;;;;;;;21.08;9.05;;;;;;;;;;10171425;28;20147;-64
2022/06/23 07:59:41;;;;;;;27.13;9.00;;;;;;;;;;10171061;28;20403;-65
2022/06/23 08:05:03;;;;;;;16.58;7.50;;;;;;;;;;10157926;28;20568;-65
2022/06/23 08:10:00;;;;;;;26.20;7.97;;;;;;;;;;10174141;28;20048;-64
2022/06/23 08:20:20;;;;;;;26.95;7.45;;;;;;;;;;10167933;28;20102;-68
2022/06/23 08:25:15;;;;;;;27.87;7.37;;;;;;;;;;10174443;28;20469;-64
2022/06/23 08:30:18;;;;;;;26.60;7.05;;;;;;;;;;10173495;28;20048;-65
2022/06/23 08:35:23;;;;;;;27.93;7.80;;;;;;;;;;10175046;28;20063;-66
2022/06/23 08:40:31;;;;;;;21.70;7.88;;;;;;;;;;10171873;28;20047;-66
2022/06/23 08:45:38;;;;;;;21.75;6.47;;;;;;;;;;10165888;28;20416;-69
2022/06/23 08:50:51;;;;;;;25.95;8.35;;;;;;;;;;10123923;28;20462;-68
2022/06/23 08:55:52;;;;;;;25.40;8.13;;;;;;;;;;10110214;28;20044;-69
2022/06/23 09:00:57;;;;;;;33.65;6.30;;;;;;;;;;10113572;28;20508;-69
2022/06/23 09:05:55;;;;;;;24.75;7.03;;;;;;;;;;10112978;28;20045;-70
2022/06/23 09:11:13;;;;;;;24.88;7.53;;;;;;;;;;10110582;28;20052;-67
2022/06/23 09:16:07;;;;;;;28.90;7.90;;;;;;;;;;10121441;28;20052;-68
2022/06/23 09:21:45;;;;;;;29.98;6.95;;;;;;;;;;10113273;28;20123;-69
2022/06/23 09:26:59;;;;;;;21.60;6.43;;;;;;;;;;10033813;28;20057;-69
2022/06/23 09:31:58;;;;;;;28.23;7.18;;;;;;;;;;10129119;28;20128;-66
2022/06/23 09:36:55;;;;;;;27.75;8.27;;;;;;;;;;10126443;28;20492;-68
2022/06/23 09:42:16;;;;;;;25.88;6.80;;;;;;;;;;10114817;28;20070;-66
2022/06/23 09:47:43;;;;;;;24.50;6.72;;;;;;;;;;10117616;28;20045;-68
2022/06/23 09:53:07;;;;;;;30.67;8.52;;;;;;;;;;10111695;28;20056;-65
2022/06/23 09:58:09;;;;;;;29.65;8.10;;;;;;;;;;10170010;28;20044;-67
2022/06/23 10:03:21;;;;;;;30.10;7.28;;;;;;;;;;10180474;28;20135;-68
2022/06/23 10:08:36;;;;;;;27.55;6.65;;;;;;;;;;10176851;28;20052;-67
2022/06/23 10:14:02;;;;;;;30.95;6.97;;;;;;;;;;10156614;28;20123;-65
2022/06/23 10:19:26;;;;;;;24.80;7.43;;;;;;;;;;10157847;28;20045;-66
2022/06/23 10:24:59;;;;;;;34.63;7.93;;;;;;;;;;10151706;28;20083;-68
2022/06/23 10:30:00;;;;;;;26.65;7.30;;;;;;;;;;10160840;28;20114;-68
2022/06/23 10:35:31;;;;;;;32.60;7.75;;;;;;;;;;10144847;28;20052;-68
2022/06/23 10:40:31;;;;;;;27.15;7.47;;;;;;;;;;10122202;28;20068;-69
2022/06/23 10:45:51;;;;;;;26.98;7.22;;;;;;;;;;10133039;28;20064;-69
2022/06/23 10:51:10;;;;;;;24.90;7.05;;;;;;;;;;10129719;28;20049;-71
2022/06/23 10:56:33;;;;;;;28.85;6.13;;;;;;;;;;10134664;28;20064;-69
2022/06/23 11:02:05;;;;;;;27.55;9.27;;;;;;;;;;10136565;28;20090;-69
2022/06/23 11:07:24;;;;;;;33.22;8.30;;;;;;;;;;10124536;28;20077;-69
2022/06/23 11:12:23;;;;;;;31.98;7.68;;;;;;;;;;10130183;28;20049;-68
2022/06/23 11:17:17;;;;;;;33.55;7.13;;;;;;;;;;10129850;28;20052;-69
2022/06/23 11:22:28;;;;;;;33.13;7.60;;;;;;;;;;10137959;28;20123;-69
2022/06/23 11:27:34;;;;;;;28.48;6.68;;;;;;;;;;10136259;28;20131;-68
2022/06/23 11:33:24;;;;;;;40.23;7.97;;;;;;;;;;10141307;28;20118;-69
2022/06/23 11:38:26;;;;;;;22.90;6.55;;;;;;;;;;10015400;28;20126;-69
2022/06/23 11:43:54;;;;;;;33.08;8.32;;;;;;;;;;10131657;28;20050;-69
2022/06/23 11:49:06;;;;;;;31.45;7.00;;;;;;;;;;10160700;28;20048;-69
2022/06/23 11:54:20;;;;;;;27.05;7.78;;;;;;;;;;10148623;28;20052;-69
2022/06/23 11:59:19;;;;;;;26.38;7.75;;;;;;;;;;10159367;28;20094;-69
2022/06/23 12:05:06;;;;;;;27.90;8.45;;;;;;;;;;10125235;28;20420;-69
2022/06/23 12:10:17;;;;;;;27.30;7.43;;;;;;;;;;10149027;28;20531;-69
2022/06/23 12:15:14;;;;;;;40.90;8.48;;;;;;;;;;10149974;28;20044;-71
2022/06/23 12:20:37;;;;;;;27.60;8.20;;;;;;;;;;10132089;28;20499;-71
2022/06/23 12:25:42;;;;;;;29.42;8.73;;;;;;;;;;10142071;28;20130;-70
2022/06/23 12:30:46;;;;;;;37.38;8.93;;;;;;;;;;10173091;28;20054;-68
2022/06/23 12:36:01;;;;;;;30.35;7.20;;;;;;;;;;10156728;28;20126;-68
2022/06/23 12:41:09;;;;;;;23.63;8.32;;;;;;;;;;10137575;28;20048;-69
2022/06/23 12:46:37;;;;;;;35.45;8.50;;;;;;;;;;10146634;28;20048;-69
2022/06/23 12:51:39;;;;;;;23.75;7.63;;;;;;;;;;10147628;28;20074;-69
2022/06/23 12:56:35;;;;;;;38.80;8.40;;;;;;;;;;10147294;28;20525;-69
2022/06/23 13:01:54;;;;;;;31.73;5.07;;;;;;;;;;10165427;28;20059;-69
2022/06/23 13:07:28;;;;;;;23.05;5.38;;;;;;;;;;10142470;28;20424;-70
2022/06/23 13:12:31;;;;;;;32.60;8.48;;;;;;;;;;10143311;28;20059;-70
2022/06/23 13:17:49;;;;;;;33.40;5.03;;;;;;;;;;10144318;28;20053;-69
2022/06/23 13:23:06;;;;;;;37.53;5.65;;;;;;;;;;10151576;28;20044;-69
2022/06/23 13:28:05;;;;;;;27.85;5.82;;;;;;;;;;10132714;28;20052;-68
2022/06/23 13:33:14;;;;;;;28.98;5.13;;;;;;;;;;10149064;28;20103;-68
2022/06/23 13:38:20;;;;;;;34.72;6.15;;;;;;;;;;10163270;28;20131;-68
2022/06/23 13:43:31;;;;;;;27.50;6.82;;;;;;;;;;10130853;28;20069;-68
2022/06/23 13:48:33;;;;;;;35.47;7.32;;;;;;;;;;10144567;28;20496;-68
2022/06/23 13:54:00;;;;;;;32.15;6.57;;;;;;;;;;10139827;28;20056;-68
2022/06/23 13:59:14;;;;;;;33.38;7.32;;;;;;;;;;10150309;28;20040;-67
2022/06/23 14:04:22;;;;;;;20.63;4.78;;;;;;;;;;10152190;28;20045;-68
2022/06/23 14:09:42;;;;;;;24.17;5.60;;;;;;;;;;10150669;28;20052;-67
2022/06/23 14:14:51;;;;;;;28.67;8.23;;;;;;;;;;10145870;28;20139;-68
2022/06/23 14:20:39;;;;;;;34.38;6.50;;;;;;;;;;10128865;28;20489;-70
2022/06/23 14:25:40;;;;;;;21.52;5.65;;;;;;;;;;10153366;28;20064;-69
2022/06/23 14:30:51;;;;;;;47.17;6.80;;;;;;;;;;10152279;28;20056;-67
2022/06/23 14:35:56;;;;;;;29.17;6.15;;;;;;;;;;10135942;28;20136;-68
2022/06/23 14:41:01;;;;;;;30.27;4.70;;;;;;;;;;10147978;28;20045;-67
2022/06/23 14:46:12;;;;;;;21.95;4.82;;;;;;;;;;10159425;28;20049;-65
2022/06/23 14:51:13;;;;;;;29.02;5.28;;;;;;;;;;10141150;28;20056;-65
2022/06/23 14:56:21;;;;;;;24.15;5.10;;;;;;;;;;10134416;28;20102;-66
2022/06/23 15:01:15;;;;;;;;;;;;;;;;;;10145829;28;20076;-66
2022/06/23 15:06:18;;;;;;;20.80;4.53;;;;;;;;;;10167882;28;20375;-66
2022/06/23 15:11:22;;;;;;;27.42;4.63;;;;;;;;;;10148528;28;20055;-66
2022/06/23 15:16:33;;;;;;;25.10;3.90;;;;;;;;;;10146662;28;20041;-67
2022/06/23 15:27:01;;;;;;;33.30;4.00;;;;;;;;;;10153122;28;20086;-66
2022/06/23 15:32:20;;;;;;;25.63;5.60;;;;;;;;;;10157942;28;20045;-67
2022/06/23 15:37:37;;;;;;;24.75;4.10;;;;;;;;;;10171514;28;20072;-66
2022/06/23 15:42:39;;;;;;;25.08;5.68;;;;;;;;;;10164294;28;20052;-66
2022/06/23 15:48:19;;;;;;;24.02;4.00;;;;;;;;;;10132925;28;20040;-66
2022/06/23 15:53:20;;;;;;;27.13;5.40;;;;;;;;;;10136654;28;20055;-67
2022/06/23 15:58:49;;;;;;;20.30;5.22;;;;;;;;;;10130235;28;20044;-69
2022/06/23 16:03:48;;;;;;;24.02;4.70;;;;;;;;;;10134126;28;20594;-69
2022/06/23 16:08:50;;;;;;;18.63;4.07;;;;;;;;;;10140175;28;20052;-70
2022/06/23 16:14:02;;;;;;;25.05;5.45;;;;;;;;;;10142848;28;20049;-68
2022/06/23 16:18:58;;;;;;;23.27;5.55;;;;;;;;;;10143860;28;20131;-68
2022/06/23 16:23:53;;;;;;;23.65;5.45;;;;;;;;;;10156561;28;20044;-69
2022/06/23 16:28:49;;;;;;;26.38;6.47;;;;;;;;;;10146948;28;20067;-67
2022/06/23 16:34:11;;;;;;;30.27;5.50;;;;;;;;;;10129264;28;20056;-67
2022/06/23 16:39:10;;;;;;;23.05;5.13;;;;;;;;;;10137202;28;20295;-69
2022/06/23 16:44:21;;;;;;;27.15;5.47;;;;;;;;;;10156179;28;20547;-70
2022/06/23 16:49:17;;;;;;;17.33;5.05;;;;;;;;;;10147248;28;20120;-70
2022/06/23 16:54:15;;;;;;;22.45;5.22;;;;;;;;;;10145611;28;20060;-70
2022/06/23 16:59:31;;;;;;;26.58;6.03;;;;;;;;;;10146028;28;20052;-70
2022/06/23 17:04:56;;;;;;;24.88;4.65;;;;;;;;;;10138517;28;20389;-69
2022/06/23 17:10:02;;;;;;;18.27;4.38;;;;;;;;;;10128213;28;20497;-69
2022/06/23 17:15:15;;;;;;;30.52;4.20;;;;;;;;;;10129866;28;20053;-68
2022/06/23 17:20:17;;;;;;;36.95;5.82;;;;;;;;;;10131804;28;20389;-69
2022/06/23 17:25:18;;;;;;;24.65;4.30;;;;;;;;;;10124333;28;20503;-69
2022/06/23 17:30:26;;;;;;;17.08;3.33;;;;;;;;;;10161097;28;20053;-71
2022/06/23 17:35:31;;;;;;;26.15;4.75;;;;;;;;;;10146457;28;20044;-71
2022/06/23 17:46:11;;;;;;;31.58;7.43;;;;;;;;;;10120278;28;20060;-71
2022/06/23 17:51:24;;;;;;;26.27;5.93;;;;;;;;;;10144265;28;20059;-72
2022/06/23 17:56:31;;;;;;;29.80;6.80;;;;;;;;;;10153842;28;20057;-71
2022/06/23 18:01:25;;;;;;;21.17;4.97;;;;;;;;;;10164780;28;20413;-72
2022/06/23 18:06:23;;;;;;;18.27;4.45;;;;;;;;;;10161678;28;20533;-71
2022/06/23 18:11:22;;;;;;;22.13;4.70;;;;;;;;;;10172124;28;20082;-70
2022/06/23 18:16:48;;;;;;;22.85;4.15;;;;;;;;;;10178321;28;20124;-69
2022/06/23 18:21:48;;;;;;;18.80;3.67;;;;;;;;;;10139959;28;20055;-71
2022/06/23 18:27:00;;;;;;;17.63;4.15;;;;;;;;;;10139801;28;20057;-70
2022/06/23 18:31:57;;;;;;;20.88;5.07;;;;;;;;;;10161066;28;20037;-70
2022/06/23 18:36:57;;;;;;;33.95;5.53;;;;;;;;;;10132972;28;20079;-70
2022/06/23 18:42:24;;;;;;;25.13;3.90;;;;;;;;;;10150160;28;20132;-70
2022/06/23 18:47:23;;;;;;;20.70;3.90;;;;;;;;;;10144474;28;20060;-69
2022/06/23 18:52:19;;;;;;;17.35;3.72;;;;;;;;;;10148181;28;20087;-68
2022/06/23 18:57:21;;;;;;;28.77;6.38;;;;;;;;;;10137119;28;20054;-67
2022/06/23 19:02:33;;;;;;;19.08;4.05;;;;;;;;;;10176009;28;20090;-67
2022/06/23 19:07:32;;;;;;;33.15;6.18;;;;;;;;;;10180032;28;20044;-68
2022/06/23 19:12:43;;;;;;;19.98;5.32;;;;;;;;;;10175559;28;20717;-65
2022/06/23 19:17:51;;;;;;;25.20;4.90;;;;;;;;;;10179027;28;20412;-66
2022/06/23 19:22:48;;;;;;;;;;;;;;;;;;10179486;28;20036;-66
2022/06/23 19:27:53;;;;;;;20.90;4.97;;;;;;;;;;10187245;28;20012;-65
2022/06/23 19:33:00;;;;;;;28.73;5.72;;;;;;;;;;10171585;28;20063;-67
2022/06/23 19:38:03;;;;;;;23.45;5.75;;;;;;;;;;10148796;28;20045;-67
2022/06/23 19:43:08;;;;;;;24.10;4.47;;;;;;;;;;10145707;28;20048;-67
2022/06/23 19:48:23;;;;;;;19.77;4.53;;;;;;;;;;10131127;28;20056;-68
2022/06/23 19:53:35;;;;;;;25.00;5.00;;;;;;;;;;10135805;28;20059;-69
2022/06/23 19:59:10;;;;;;;22.83;5.05;;;;;;;;;;10136529;28;20087;-68
2022/06/23 20:04:15;;;;;;;25.65;5.13;;;;;;;;;;10134325;28;20068;-68
2022/06/23 20:09:49;;;;;;;21.58;4.30;;;;;;;;;;10141714;28;20043;-67
2022/06/23 20:14:46;;;;;;;26.23;4.75;;;;;;;;;;10160535;28;20041;-65
2022/06/23 20:20:03;;;;;;;20.45;5.78;;;;;;;;;;10142940;28;20039;-68
2022/06/23 20:25:15;;;;;;;13.52;3.55;;;;;;;;;;10133586;28;20048;-68
2022/06/23 20:30:18;;;;;;;28.02;4.70;;;;;;;;;;10148617;28;20139;-68
2022/06/23 20:35:36;;;;;;;23.88;4.97;;;;;;;;;;10143940;28;20467;-68
2022/06/23 20:40:32;;;;;;;33.85;4.82;;;;;;;;;;10140107;28;20048;-69
2022/06/23 20:45:36;;;;;;;20.80;4.75;;;;;;;;;;10145649;28;20049;-68
2022/06/23 20:50:51;;;;;;;26.38;5.15;;;;;;;;;;10146903;28;20131;-69
2022/06/23 20:56:02;;;;;;;20.13;4.18;;;;;;;;;;10067178;28;20061;-69
2022/06/23 21:01:33;;;;;;;22.58;5.25;;;;;;;;;;10060806;28;20057;-69
2022/06/23 21:06:49;;;;;;;16.90;4.35;;;;;;;;;;10057721;28;20065;-67
2022/06/23 21:12:16;;;;;;;12.55;3.72;;;;;;;;;;10066997;28;20061;-67
2022/06/23 21:17:21;;;;;;;27.02;4.88;;;;;;;;;;10079565;28;20058;-69
2022/06/23 21:22:38;;;;;;;32.38;4.93;;;;;;;;;;10066586;28;20111;-69
2022/06/23 21:27:46;;;;;;;26.08;4.28;;;;;;;;;;10075569;28;20498;-68
2022/06/23 21:32:53;;;;;;;23.55;4.30;;;;;;;;;;10074782;28;20080;-68
2022/06/23 21:37:50;;;;;;;24.97;5.00;;;;;;;;;;10074720;28;20470;-69
2022/06/23 21:42:44;;;;;;;25.20;4.15;;;;;;;;;;10074608;28;20045;-68
2022/06/23 21:47:51;;;;;;;18.80;3.28;;;;;;;;;;10072591;28;20080;-67
2022/06/23 21:53:14;;;;;;;26.45;4.28;;;;;;;;;;10101180;28;20060;-68
2022/06/23 21:58:26;;;;;;;16.42;4.20;;;;;;;;;;10153763;28;20067;-68
2022/06/23 22:03:50;;;;;;;31.65;5.25;;;;;;;;;;10153165;28;20445;-68
2022/06/23 22:08:55;;;;;;;22.02;4.75;;;;;;;;;;10153304;28;20105;-68
2022/06/23 22:13:52;;;;;;;27.60;4.28;;;;;;;;;;10152586;28;20102;-68
2022/06/23 22:18:48;;;;;;;44.60;6.93;;;;;;;;;;10142896;28;20048;-68
2022/06/23 22:29:23;;;;;;;20.60;4.03;;;;;;;;;;10152873;28;20506;-68
2022/06/23 22:34:45;;;;;;;26.02;3.65;;;;;;;;;;10127874;28;20049;-68
2022/06/23 22:39:44;;;;;;;19.88;3.90;;;;;;;;;;10145662;28;20127;-68
2022/06/23 22:45:02;;;;;;;20.35;4.78;;;;;;;;;;10152177;28;20068;-68
2022/06/23 22:50:17;;;;;;;21.90;3.63;;;;;;;;;;10140293;28;20056;-67
2022/06/23 22:55:12;;;;;;;19.50;3.65;;;;;;;;;;10070295;28;21199;-67
2022/06/23 23:00:05;;;;;;;25.42;5.35;;;;;;;;;;10150877;28;20413;-67
2022/06/23 23:05:04;;;;;;;20.20;4.85;;;;;;;;;;10150272;28;20157;-67
2022/06/23 23:10:19;;;;;;;17.65;4.22;;;;;;;;;;10150448;28;20405;-68
2022/06/23 23:15:18;;;;;;;28.55;3.97;;;;;;;;;;10124253;28;20501;-68
2022/06/23 23:20:16;;;;;;;20.83;4.10;;;;;;;;;;10150966;28;20408;-67
2022/06/23 23:25:17;;;;;;;13.60;3.30;;;;;;;;;;10150010;28;20045;-68
2022/06/23 23:30:13;;;;;;;26.67;6.10;;;;;;;;;;10149237;28;20059;-68
2022/06/23 23:35:28;;;;;;;24.58;4.25;;;;;;;;;;10149861;28;20126;-68
2022/06/23 23:40:30;;;;;;;23.27;4.80;;;;;;;;;;10133477;28;20045;-68
2022/06/23 23:45:23;;;;;;;18.77;5.22;;;;;;;;;;10148253;28;20056;-68
2022/06/23 23:50:26;;;;;;;26.05;4.00;;;;;;;;;;10148121;28;20056;-68
2022/06/23 23:55:20;;;;;;;25.67;4.53;;;;;;;;;;10134608;28;20052;-68
